Time;durP1;ratioP1;P1;durP2;ratioP2;P2;SDS_P1;SDS_P2;PMS_P1;PMS_P2;Temp;Humidity;BMP_temperature;BMP_pressure;BME280_temperature;BME280_humidity;BME280_pressure;Samples;Min_cycle;Max_cycle;Signal;HPM_P1;HPM_P2
2023/12/03 00:00:43;;;;;;;30.38;23.63;;;;;;;-2.34;100.00;96271.88;5020481;28;20026;-65
2023/12/03 00:03:11;;;;;;;11.52;10.32;;;;;;;-2.28;100.00;96276.00;5017413;28;20045;-65
2023/12/03 00:05:37;;;;;;;18.27;16.35;;;;;;;-2.27;100.00;96272.53;5019384;28;20084;-65
2023/12/03 00:08:03;;;;;;;8.32;7.63;;;;;;;-2.37;100.00;96261.66;5023827;28;20029;-65
2023/12/03 00:10:29;;;;;;;19.85;17.58;;;;;;;-2.25;100.00;96271.56;5031236;28;20026;-65
2023/12/03 00:12:55;;;;;;;21.63;15.13;;;;;;;-2.23;100.00;96262.03;5019296;28;20049;-65
2023/12/03 00:15:21;;;;;;;19.40;16.95;;;;;;;-2.35;100.00;96265.84;5028304;28;20402;-64
2023/12/03 00:17:47;;;;;;;10.13;9.23;;;;;;;-2.27;100.00;96273.34;5023083;28;20022;-65
2023/12/03 00:20:13;;;;;;;17.92;15.98;;;;;;;-2.24;100.00;96270.66;5026557;28;20025;-65
2023/12/03 00:22:38;;;;;;;13.45;10.95;;;;;;;-2.31;100.00;96270.03;5019638;28;20022;-65
2023/12/03 00:25:04;;;;;;;17.00;14.13;;;;;;;-2.25;100.00;96279.31;5039511;28;20040;-65
2023/12/03 00:27:29;;;;;;;10.80;9.38;;;;;;;-2.40;100.00;96278.06;5023054;28;20029;-65
2023/12/03 00:29:55;;;;;;;11.88;10.63;;;;;;;-2.51;100.00;96285.31;5020816;28;20029;-65
2023/12/03 00:32:20;;;;;;;15.00;13.13;;;;;;;-2.61;100.00;96292.47;5016742;28;20053;-65
2023/12/03 00:34:46;;;;;;;16.17;14.45;;;;;;;-2.61;100.00;96285.56;5024573;28;20022;-65
2023/12/03 00:37:11;;;;;;;16.60;14.20;;;;;;;-2.53;100.00;96285.34;5040045;28;20076;-65
2023/12/03 00:39:37;;;;;;;11.63;10.23;;;;;;;-2.54;100.00;96282.78;5030494;28;20033;-65
2023/12/03 00:42:02;;;;;;;17.10;14.38;;;;;;;-2.59;100.00;96286.34;5021958;28;20076;-65
2023/12/03 00:44:28;;;;;;;13.82;12.23;;;;;;;-2.64;100.00;96290.81;5025952;28;20021;-65
2023/12/03 00:46:53;;;;;;;9.57;8.68;;;;;;;-2.65;100.00;96289.13;5020504;28;20035;-65
2023/12/03 00:49:18;;;;;;;10.70;9.68;;;;;;;-2.59;100.00;96293.25;5020211;28;20029;-65
2023/12/03 00:51:44;;;;;;;13.65;12.02;;;;;;;-2.59;100.00;96295.84;5017440;28;20458;-65
2023/12/03 00:54:09;;;;;;;12.02;10.82;;;;;;;-2.69;100.00;96291.84;5025569;28;20028;-65
2023/12/03 00:56:34;;;;;;;16.92;15.02;;;;;;;-2.74;100.00;96300.56;5018729;28;20034;-65
2023/12/03 00:59:00;;;;;;;12.48;11.13;;;;;;;-2.74;100.00;96302.31;5018352;28;20123;-65
2023/12/03 01:01:25;;;;;;;14.32;12.93;;;;;;;-2.74;100.00;96297.97;5022069;28;20022;-65
2023/12/03 01:03:51;;;;;;;16.40;11.25;;;;;;;-2.51;100.00;96300.78;5017598;28;20026;-65
2023/12/03 01:06:16;;;;;;;12.30;9.18;;;;;;;-2.45;100.00;96295.41;5017281;28;20030;-65
2023/12/03 01:08:41;;;;;;;11.30;9.98;;;;;;;-2.43;100.00;96300.50;5021165;28;20052;-64
2023/12/03 01:11:07;;;;;;;10.70;9.70;;;;;;;-2.45;100.00;96305.72;5023612;28;20034;-65
2023/12/03 01:13:32;;;;;;;11.55;10.38;;;;;;;-2.48;100.00;96305.84;5024833;28;20059;-65
2023/12/03 01:15:58;;;;;;;11.38;10.27;;;;;;;-2.55;100.00;96297.44;5020970;28;20116;-65
2023/12/03 01:18:24;;;;;;;9.85;8.68;;;;;;;-2.63;100.00;96302.81;5025836;28;20479;-65
2023/12/03 01:20:49;;;;;;;14.52;11.90;;;;;;;-2.68;100.00;96307.28;5023566;28;20026;-65
2023/12/03 01:23:14;;;;;;;12.05;10.38;;;;;;;-2.70;100.00;96306.47;5028393;28;20056;-65
2023/12/03 01:25:40;;;;;;;13.38;10.00;;;;;;;-2.63;100.00;96295.09;5020226;28;20022;-65
2023/12/03 01:28:05;;;;;;;14.23;11.85;;;;;;;-2.70;100.00;96296.16;5032351;28;20025;-65
2023/12/03 01:30:30;;;;;;;12.73;9.13;;;;;;;-2.70;100.00;96290.16;5019181;28;20234;-64
2023/12/03 01:32:56;;;;;;;22.77;16.42;;;;;;;-2.70;100.00;96290.16;5017817;28;20064;-65
2023/12/03 01:35:21;;;;;;;11.13;10.02;;;;;;;-2.56;100.00;96294.88;5021177;28;20052;-65
2023/12/03 01:37:47;;;;;;;12.98;10.02;;;;;;;-2.60;100.00;96297.56;5017848;28;20053;-64
2023/12/03 01:40:12;;;;;;;20.83;14.98;;;;;;;-2.65;100.00;96298.63;5023224;28;20032;-65
2023/12/03 01:42:38;;;;;;;15.75;13.48;;;;;;;-2.54;100.00;96300.84;5020836;28;20022;-65
2023/12/03 01:45:04;;;;;;;10.30;9.35;;;;;;;-2.57;100.00;96301.78;5043040;28;20416;-65
2023/12/03 01:47:30;;;;;;;12.25;10.73;;;;;;;-2.52;100.00;96299.09;5021268;28;20026;-65
2023/12/03 01:50:01;;;;;;;13.70;11.55;;;;;;;-2.57;100.00;96296.63;5016499;28;20450;-65
2023/12/03 01:52:26;;;;;;;27.33;18.02;;;;;;;-2.57;100.00;96301.78;5021079;28;20046;-65
2023/12/03 01:54:54;;;;;;;12.68;11.35;;;;;;;-2.64;100.00;96298.56;5024960;28;20401;-65
2023/12/03 01:57:19;;;;;;;11.00;9.45;;;;;;;-2.64;100.00;96297.72;5027519;28;20025;-65
2023/12/03 01:59:45;;;;;;;13.35;9.68;;;;;;;-2.61;100.00;96297.63;5028875;28;20116;-65
2023/12/03 02:02:11;;;;;;;20.27;15.32;;;;;;;-2.53;100.00;96292.25;5019182;28;20041;-65
2023/12/03 02:04:36;;;;;;;27.40;17.60;;;;;;;-2.43;100.00;96287.63;5016655;28;20025;-65
2023/12/03 02:07:02;;;;;;;32.83;20.65;;;;;;;-2.51;100.00;96285.31;5019804;28;20044;-65
2023/12/03 02:09:27;;;;;;;23.67;15.82;;;;;;;-2.49;100.00;96292.09;5028401;28;20107;-65
2023/12/03 02:11:53;;;;;;;36.00;18.58;;;;;;;-2.41;100.00;96293.59;5030478;28;20033;-65
2023/12/03 02:14:18;;;;;;;66.93;28.58;;;;;;;-2.47;100.00;96298.03;5024036;28;21608;-65
2023/12/03 02:16:45;;;;;;;71.65;29.17;;;;;;;-2.38;100.00;96296.06;5036422;28;20028;-65
2023/12/03 02:19:11;;;;;;;95.18;39.05;;;;;;;-2.51;100.00;96301.59;5023159;28;20038;-65
2023/12/03 02:21:36;;;;;;;56.42;26.55;;;;;;;-2.53;100.00;96303.38;5025206;28;20524;-65
2023/12/03 02:24:01;;;;;;;78.95;32.25;;;;;;;-2.60;100.00;96301.91;5019178;28;20510;-65
2023/12/03 02:26:27;;;;;;;37.33;21.88;;;;;;;-2.57;100.00;96301.78;5028172;28;20056;-65
2023/12/03 02:28:52;;;;;;;24.35;14.32;;;;;;;-2.51;100.00;96300.78;5019222;28;20029;-65
2023/12/03 02:31:17;;;;;;;25.77;15.85;;;;;;;-2.43;100.00;96297.94;5022534;28;20026;-65
2023/12/03 02:33:53;;;;;;;20.20;14.32;;;;;;;-2.46;100.00;96298.88;5026213;28;20033;-65
2023/12/03 02:36:18;;;;;;;17.35;13.45;;;;;;;-2.46;100.00;96301.47;5026427;28;20033;-65
2023/12/03 02:38:43;;;;;;;18.17;13.07;;;;;;;-2.51;100.00;96291.28;5021821;28;20030;-65
2023/12/03 02:41:09;;;;;;;15.32;13.02;;;;;;;-2.45;100.00;96305.72;5027931;28;20065;-65
2023/12/03 02:43:34;;;;;;;13.90;11.48;;;;;;;-2.48;100.00;96305.84;5024903;28;20515;-65
2023/12/03 02:45:59;;;;;;;14.18;11.50;;;;;;;-2.47;100.00;96298.03;5030699;28;20032;-65
2023/12/03 02:48:25;;;;;;;17.40;13.73;;;;;;;-2.52;100.00;96299.91;5021487;28;20025;-65
2023/12/03 02:50:50;;;;;;;15.80;12.55;;;;;;;-2.45;100.00;96310.91;5017298;28;20100;-65
2023/12/03 02:53:16;;;;;;;21.60;14.98;;;;;;;-2.49;100.00;96299.00;5027536;28;20030;-65
2023/12/03 02:55:41;;;;;;;21.30;14.45;;;;;;;-2.59;100.00;96299.25;5038097;28;20470;-65
2023/12/03 02:58:07;;;;;;;16.83;12.98;;;;;;;-2.62;100.00;96298.53;5034967;28;20069;-64
2023/12/03 03:00:34;;;;;;;17.70;14.23;;;;;;;-2.61;100.00;96303.63;5028858;28;20041;-65
2023/12/03 03:03:00;;;;;;;18.05;15.55;;;;;;;-2.54;100.00;96304.28;5023948;28;20129;-65
2023/12/03 03:05:25;;;;;;;15.48;12.85;;;;;;;-2.57;100.00;96296.63;5024511;28;20032;-65
2023/12/03 03:07:50;;;;;;;13.57;12.25;;;;;;;-2.54;100.00;96306.00;5033215;28;20033;-65
2023/12/03 03:10:16;;;;;;;13.25;11.95;;;;;;;-2.64;100.00;96303.72;5026886;28;20121;-65
2023/12/03 03:12:41;;;;;;;13.50;12.20;;;;;;;-2.67;100.00;96296.06;5020385;28;20033;-64
2023/12/03 03:15:07;;;;;;;15.20;12.80;;;;;;;-2.64;100.00;96306.28;5029147;28;20057;-65
2023/12/03 03:17:32;;;;;;;12.60;11.07;;;;;;;-2.63;100.00;96307.97;5015962;28;20030;-65
2023/12/03 03:19:58;;;;;;;11.85;10.73;;;;;;;-2.64;100.00;96314.03;5021560;28;20385;-65
2023/12/03 03:22:23;;;;;;;12.23;11.00;;;;;;;-2.63;100.00;96310.56;5027149;28;20025;-65
2023/12/03 03:24:51;;;;;;;9.88;8.98;;;;;;;-2.65;100.00;96316.66;5034149;28;20026;-65
2023/12/03 03:27:16;;;;;;;11.57;10.38;;;;;;;-2.65;100.00;96321.81;5025805;28;20038;-65
2023/12/03 03:29:42;;;;;;;11.02;9.93;;;;;;;-2.65;100.00;96325.22;5017716;28;20038;-65
2023/12/03 03:32:07;;;;;;;9.05;8.25;;;;;;;-2.57;100.00;96326.72;5016351;28;20029;-65
2023/12/03 03:34:32;;;;;;;10.02;9.10;;;;;;;-2.54;100.00;96327.47;5028093;28;20029;-65
2023/12/03 03:36:58;;;;;;;9.10;8.25;;;;;;;-2.61;100.00;96331.97;5016469;28;20449;-65
2023/12/03 03:39:23;;;;;;;10.95;9.75;;;;;;;-2.61;100.00;96329.41;5022504;28;20056;-65
2023/12/03 03:41:48;;;;;;;11.35;10.25;;;;;;;-2.57;100.00;96326.72;5026786;28;20023;-65
2023/12/03 03:44:14;;;;;;;11.77;10.68;;;;;;;-2.56;100.00;96331.00;5016172;28;20494;-65
2023/12/03 03:46:39;;;;;;;12.52;11.32;;;;;;;-2.60;100.00;96338.81;5034807;28;20041;-65
2023/12/03 03:49:05;;;;;;;11.85;10.43;;;;;;;-2.59;100.00;96344.84;5051798;28;20120;-65
2023/12/03 03:51:30;;;;;;;11.68;10.48;;;;;;;-2.64;100.00;96350.13;5032741;28;20041;-65
2023/12/03 03:53:55;;;;;;;11.05;10.00;;;;;;;-2.61;100.00;96342.28;5035631;28;20073;-65
2023/12/03 03:56:22;;;;;;;10.45;9.55;;;;;;;-2.65;100.00;96348.44;5028917;28;20025;-65
2023/12/03 03:58:48;;;;;;;10.73;9.70;;;;;;;-2.62;100.00;96343.19;5021156;28;20093;-65
2023/12/03 04:01:14;;;;;;;9.88;9.05;;;;;;;-2.54;100.00;96345.53;5024061;28;20053;-65
2023/12/03 04:03:39;;;;;;;7.47;6.82;;;;;;;-2.47;100.00;96339.28;5017593;28;20050;-65
2023/12/03 04:06:05;;;;;;;7.43;6.72;;;;;;;-2.55;100.00;96346.44;5025006;28;20032;-65
2023/12/03 04:08:31;;;;;;;7.72;6.25;;;;;;;-2.54;100.00;96352.41;5028248;28;20052;-65
2023/12/03 04:10:56;;;;;;;6.55;5.95;;;;;;;-2.55;100.00;96350.72;5023710;28;20107;-65
2023/12/03 04:13:24;;;;;;;5.90;5.30;;;;;;;-2.53;100.00;96351.56;5021922;28;20502;-65
2023/12/03 04:15:49;;;;;;;4.90;4.60;;;;;;;-2.59;100.00;96350.00;5026823;28;20029;-65
2023/12/03 04:18:14;;;;;;;5.03;4.63;;;;;;;-2.58;100.00;96351.69;5024305;28;20111;-65
2023/12/03 04:20:40;;;;;;;4.65;4.28;;;;;;;-2.66;100.00;96351.91;5032319;28;20025;-65
2023/12/03 04:23:05;;;;;;;5.00;4.60;;;;;;;-2.64;100.00;96357.03;5025657;28;20029;-65
2023/12/03 04:25:31;;;;;;;6.72;4.95;;;;;;;-2.70;100.00;96354.59;5027990;28;20053;-65
2023/12/03 04:27:57;;;;;;;4.82;4.43;;;;;;;-2.73;100.00;96360.72;5030728;28;20025;-65
2023/12/03 04:30:22;;;;;;;4.97;4.57;;;;;;;-2.77;100.00;96359.06;5020664;28;20697;-65
2023/12/03 04:32:48;;;;;;;5.78;5.28;;;;;;;-2.77;100.00;96361.66;5033754;28;20375;-65
2023/12/03 04:35:14;;;;;;;6.25;5.65;;;;;;;-2.79;100.00;96360.88;5019872;28;20030;-65
2023/12/03 04:37:39;;;;;;;5.72;5.32;;;;;;;-2.75;100.00;96365.06;5015894;28;20036;-65
2023/12/03 04:40:06;;;;;;;6.10;5.60;;;;;;;-2.70;100.00;96370.94;5030061;28;20022;-65
2023/12/03 04:42:31;;;;;;;8.18;6.80;;;;;;;-2.68;100.00;96376.03;5016935;28;20097;-65
2023/12/03 04:44:56;;;;;;;7.65;6.95;;;;;;;-2.74;100.00;96371.91;5027561;28;20065;-65
2023/12/03 04:47:22;;;;;;;7.38;6.78;;;;;;;-2.76;100.00;96371.94;5021085;28;20025;-65
2023/12/03 04:49:47;;;;;;;6.88;6.03;;;;;;;-2.78;100.00;96370.28;5033371;28;20123;-64
2023/12/03 04:52:13;;;;;;;5.72;5.22;;;;;;;-2.71;100.00;96374.41;5027465;28;20045;-65
2023/12/03 04:54:38;;;;;;;5.90;5.40;;;;;;;-2.70;100.00;96375.22;5015338;28;20159;-65
2023/12/03 04:57:04;;;;;;;5.50;5.00;;;;;;;-2.72;100.00;96375.28;5020486;28;20029;-65
2023/12/03 04:59:29;;;;;;;4.88;4.55;;;;;;;-2.76;100.00;96376.25;5021449;28;20026;-65
2023/12/03 05:01:54;;;;;;;4.43;4.13;;;;;;;-2.77;100.00;96382.28;5013310;28;20018;-65
2023/12/03 05:04:21;;;;;;;5.70;5.20;;;;;;;-2.71;100.00;96389.88;5027729;28;20033;-66
2023/12/03 05:06:47;;;;;;;5.68;5.15;;;;;;;-2.76;100.00;96386.56;5033115;28;20100;-65
2023/12/03 05:09:13;;;;;;;4.97;4.57;;;;;;;-2.75;100.00;96396.00;5032750;28;20057;-65
2023/12/03 05:11:39;;;;;;;5.30;4.47;;;;;;;-2.72;100.00;96401.06;5029005;28;20109;-65
2023/12/03 05:14:05;;;;;;;5.20;4.70;;;;;;;-2.72;100.00;96395.03;5015372;28;20037;-65
2023/12/03 05:16:30;;;;;;;4.82;4.43;;;;;;;-2.77;100.00;96398.59;5022080;28;20399;-65
2023/12/03 05:18:55;;;;;;;4.82;4.32;;;;;;;-2.63;100.00;96405.94;5032714;28;20438;-65
2023/12/03 05:21:21;;;;;;;5.05;4.65;;;;;;;-2.69;100.00;96402.69;5025067;28;20445;-65
2023/12/03 05:23:46;;;;;;;8.60;5.60;;;;;;;-2.78;100.00;96396.91;5018069;28;20037;-65
2023/12/03 05:26:12;;;;;;;5.68;5.20;;;;;;;-2.83;100.00;96403.94;5015022;28;20022;-65
2023/12/03 05:28:37;;;;;;;4.85;4.45;;;;;;;-2.74;100.00;96411.41;5022653;28;20142;-65
2023/12/03 05:31:04;;;;;;;5.38;4.97;;;;;;;-2.81;100.00;96414.19;5019857;28;20022;-65
2023/12/03 05:33:30;;;;;;;5.63;5.13;;;;;;;-2.82;100.00;96426.25;5021680;28;20022;-64
2023/12/03 05:35:55;;;;;;;6.10;5.32;;;;;;;-2.85;100.00;96416.03;5015115;28;20584;-65
2023/12/03 05:38:21;;;;;;;6.00;5.50;;;;;;;-2.79;100.00;96427.88;5016812;28;20105;-65
2023/12/03 05:40:46;;;;;;;7.22;6.45;;;;;;;-2.83;100.00;96437.44;5016011;28;20699;-65
2023/12/03 05:43:13;;;;;;;8.88;7.20;;;;;;;-2.81;100.00;96430.50;5019006;28;20067;-65
2023/12/03 05:45:38;;;;;;;11.57;8.88;;;;;;;-2.78;100.00;96437.28;5018417;28;20080;-65
2023/12/03 05:48:04;;;;;;;8.82;7.53;;;;;;;-2.74;100.00;96428.63;5018751;28;20025;-65
2023/12/03 05:50:30;;;;;;;9.43;8.32;;;;;;;-2.82;100.00;96420.22;5024438;28;20029;-65
2023/12/03 05:52:55;;;;;;;9.52;8.52;;;;;;;-2.85;100.00;96422.91;5023803;28;20148;-65
2023/12/03 05:55:20;;;;;;;10.43;9.32;;;;;;;-2.79;100.00;96425.31;5036891;28;20081;-65
2023/12/03 05:57:46;;;;;;;6.70;5.97;;;;;;;-2.77;100.00;96426.09;5035991;28;20501;-65
2023/12/03 06:00:12;;;;;;;6.72;6.13;;;;;;;-2.84;100.00;96422.00;5024925;28;20394;-65
2023/12/03 06:02:37;;;;;;;7.50;6.80;;;;;;;-2.82;100.00;96423.66;5029530;28;20021;-66
2023/12/03 06:05:02;;;;;;;7.78;7.07;;;;;;;-2.88;100.00;96437.56;5027901;28;20030;-65
2023/12/03 06:07:28;;;;;;;6.50;6.00;;;;;;;-2.86;100.00;96439.25;5027158;28;20018;-65
2023/12/03 06:09:53;;;;;;;5.82;5.32;;;;;;;-2.84;100.00;96442.63;5035771;28;20029;-65
2023/12/03 06:12:18;;;;;;;4.68;4.35;;;;;;;-2.89;100.00;96446.19;5022046;28;20124;-65
2023/12/03 06:14:44;;;;;;;5.15;4.75;;;;;;;-2.89;100.00;96447.91;5023934;28;20173;-64
2023/12/03 06:17:09;;;;;;;4.75;4.40;;;;;;;-2.94;100.00;96450.63;5026452;28;20364;-65
2023/12/03 06:19:34;;;;;;;5.50;5.00;;;;;;;-2.91;100.00;96458.25;5018187;28;20113;-65
2023/12/03 06:22:00;;;;;;;5.07;4.68;;;;;;;-2.93;100.00;96452.31;5032618;28;20052;-65
2023/12/03 06:24:26;;;;;;;5.50;5.10;;;;;;;-2.97;100.00;96462.72;5022202;28;20026;-65
2023/12/03 06:26:51;;;;;;;5.93;5.47;;;;;;;-3.04;100.00;96459.47;5029540;28;20035;-65
2023/12/03 06:29:16;;;;;;;5.82;5.32;;;;;;;-3.02;100.00;96458.53;5029380;28;20098;-65
2023/12/03 06:31:42;;;;;;;6.05;5.55;;;;;;;-2.96;100.00;96467.00;5035797;28;20098;-65
2023/12/03 06:34:07;;;;;;;8.40;6.95;;;;;;;-2.95;100.00;96466.09;5032662;28;20037;-64
2023/12/03 06:36:33;;;;;;;8.02;6.65;;;;;;;-2.98;100.00;96466.19;5024185;28;20022;-64
2023/12/03 06:38:58;;;;;;;7.30;6.32;;;;;;;-2.94;100.00;96478.09;5027664;28;20029;-65
2023/12/03 06:41:23;;;;;;;7.28;6.57;;;;;;;-2.99;100.00;96478.22;5023561;28;20026;-65
2023/12/03 06:43:49;;;;;;;6.20;5.63;;;;;;;-3.03;100.00;96484.34;5030505;28;20068;-65
2023/12/03 06:46:14;;;;;;;8.27;7.47;;;;;;;-3.02;100.00;96489.47;5029356;28;20025;-64
2023/12/03 06:48:42;;;;;;;8.70;7.85;;;;;;;-3.09;100.00;96482.78;5021410;28;20047;-65
2023/12/03 06:51:09;;;;;;;10.85;7.40;;;;;;;-3.04;100.00;96482.66;5029250;28;20073;-65
2023/12/03 06:53:34;;;;;;;7.07;6.22;;;;;;;-3.08;100.00;96487.06;5025237;28;20049;-65
2023/12/03 06:55:59;;;;;;;6.97;6.38;;;;;;;-3.02;100.00;96484.31;5019066;28;20026;-65
2023/12/03 06:58:25;;;;;;;6.40;5.88;;;;;;;-3.10;100.00;96487.97;5021021;28;20103;-64
2023/12/03 07:00:53;;;;;;;9.23;7.00;;;;;;;-3.05;100.00;96499.00;5023059;28;20029;-65
2023/12/03 07:03:18;;;;;;;7.13;6.40;;;;;;;-2.99;100.00;96495.41;5034431;28;20052;-65
2023/12/03 07:05:44;;;;;;;6.45;5.78;;;;;;;-3.01;100.00;96503.19;5035665;28;20494;-65
2023/12/03 07:08:09;;;;;;;6.20;5.63;;;;;;;-2.98;100.00;96492.81;5031605;28;20034;-65
2023/12/03 07:10:35;;;;;;;7.88;6.57;;;;;;;-2.99;100.00;96496.25;5022811;28;20028;-65
2023/12/03 07:13:00;;;;;;;6.57;5.97;;;;;;;-2.99;100.00;96498.00;5033994;28;20108;-65
2023/12/03 07:15:25;;;;;;;7.20;6.50;;;;;;;-3.03;100.00;96505.81;5021510;28;20824;-65
2023/12/03 07:17:51;;;;;;;16.92;11.70;;;;;;;-3.06;100.00;96507.59;5026180;28;20036;-65
2023/12/03 07:20:18;;;;;;;10.73;8.18;;;;;;;-3.02;100.00;96509.22;5036563;28;20599;-65
2023/12/03 07:22:43;;;;;;;7.82;7.03;;;;;;;-3.03;100.00;96515.25;5022393;28;20041;-65
2023/12/03 07:25:09;;;;;;;9.93;6.90;;;;;;;-3.06;100.00;96508.47;5027710;28;20021;-65
2023/12/03 07:27:34;;;;;;;9.48;8.23;;;;;;;-3.08;100.00;96517.09;5024486;28;20579;-64
2023/12/03 07:30:00;;;;;;;27.08;18.40;;;;;;;-3.02;100.00;96519.53;5017083;28;20041;-65
2023/12/03 07:32:26;;;;;;;9.98;8.98;;;;;;;-3.01;100.00;96516.06;5033011;28;20022;-65
2023/12/03 07:34:52;;;;;;;8.30;7.50;;;;;;;-2.96;100.00;96513.38;5016712;28;20018;-66
2023/12/03 07:37:18;;;;;;;7.70;6.82;;;;;;;-3.07;100.00;96516.22;5021645;28;20036;-65
2023/12/03 07:39:43;;;;;;;7.38;6.78;;;;;;;-3.10;100.00;96508.56;5023839;28;20021;-65
2023/12/03 07:42:09;;;;;;;10.88;8.02;;;;;;;-3.02;100.00;96504.06;5023954;28;20030;-65
2023/12/03 07:44:34;;;;;;;8.02;7.22;;;;;;;-3.04;100.00;96504.13;5025464;28;20040;-65
2023/12/03 07:47:00;;;;;;;10.35;9.15;;;;;;;-3.00;100.00;96509.19;5014743;28;20491;-65
2023/12/03 07:49:25;;;;;;;11.00;9.27;;;;;;;-2.94;100.00;96509.03;5028319;28;20029;-65
2023/12/03 07:51:51;;;;;;;13.30;9.90;;;;;;;-2.91;100.00;96508.94;5034692;28;20165;-65
2023/12/03 07:54:17;;;;;;;17.65;13.60;;;;;;;-2.91;100.00;96506.38;5022019;28;20037;-64
2023/12/03 07:56:42;;;;;;;10.00;8.93;;;;;;;-2.80;100.00;96512.09;5032816;28;20028;-65
2023/12/03 07:59:08;;;;;;;10.77;9.05;;;;;;;-2.84;100.00;96507.94;5031363;28;20029;-65
2023/12/03 08:01:34;;;;;;;11.73;9.43;;;;;;;-2.95;100.00;96515.94;5019066;28;20505;-65
2023/12/03 08:03:59;;;;;;;6.78;6.18;;;;;;;-2.88;100.00;96514.00;5007987;28;20030;-65
2023/12/03 08:06:25;;;;;;;7.55;6.88;;;;;;;-2.88;100.00;96519.16;5026907;28;20025;-65
2023/12/03 08:08:54;;;;;;;15.18;12.52;;;;;;;-2.91;100.00;96521.84;5035529;28;20051;-65
2023/12/03 08:11:20;;;;;;;12.77;11.13;;;;;;;-2.86;100.00;96538.06;5019930;28;20041;-65
2023/12/03 08:13:46;;;;;;;15.85;12.27;;;;;;;-2.81;100.00;96533.63;5030626;28;20021;-65
2023/12/03 08:16:12;;;;;;;17.58;14.30;;;;;;;-2.66;100.00;96546.97;5028652;28;20032;-65
2023/12/03 08:18:37;;;;;;;14.82;10.40;;;;;;;-2.51;100.00;96548.34;5035363;28;20445;-65
2023/12/03 08:21:03;;;;;;;11.70;10.70;;;;;;;-2.53;100.00;96544.94;5031575;28;20033;-65
2023/12/03 08:23:30;;;;;;;15.75;12.40;;;;;;;-2.55;100.00;96546.69;5023040;28;20061;-65
2023/12/03 08:25:56;;;;;;;9.07;8.18;;;;;;;-2.52;100.00;96549.22;5030737;28;20096;-66
2023/12/03 08:28:21;;;;;;;6.57;6.07;;;;;;;-2.47;100.00;96544.78;5014897;28;20034;-65
2023/12/03 08:30:48;;;;;;;19.08;15.05;;;;;;;-2.52;100.00;96555.19;5027950;28;20029;-66
2023/12/03 08:33:14;;;;;;;10.18;7.57;;;;;;;-2.50;100.00;96561.16;5015486;28;20037;-64
2023/12/03 08:35:39;;;;;;;10.43;9.02;;;;;;;-2.64;100.00;96558.94;5020176;28;20494;-66
2023/12/03 08:38:05;;;;;;;9.68;8.30;;;;;;;-2.60;100.00;96557.16;5033139;28;20073;-65
2023/12/03 08:40:30;;;;;;;9.18;8.27;;;;;;;-2.57;100.00;96557.06;5019751;28;20030;-65
2023/12/03 08:42:56;;;;;;;5.93;5.43;;;;;;;-2.53;100.00;96561.25;5020155;28;20087;-66
2023/12/03 08:45:21;;;;;;;12.82;9.73;;;;;;;-2.52;100.00;96552.63;5015615;28;20033;-66
2023/12/03 08:47:47;;;;;;;24.70;22.02;;;;;;;-2.41;100.00;96559.25;5027134;28;20387;-65
2023/12/03 08:50:12;;;;;;;27.73;23.45;;;;;;;-2.29;100.00;96558.91;5019756;28;20033;-67
2023/12/03 08:52:37;;;;;;;21.95;19.00;;;;;;;-2.26;100.00;96560.56;5026649;28;20085;-66
2023/12/03 08:55:04;;;;;;;12.27;10.88;;;;;;;-2.24;100.00;96561.34;5029267;28;20033;-65
2023/12/03 08:57:29;;;;;;;14.88;13.48;;;;;;;-2.29;100.00;96568.38;5030777;28;20029;-66
2023/12/03 08:59:55;;;;;;;9.05;7.47;;;;;;;-2.26;100.00;96563.97;5030683;28;20033;-66
2023/12/03 09:02:20;;;;;;;11.50;10.52;;;;;;;-2.23;100.00;96569.03;5017066;28;20041;-66
2023/12/03 09:04:46;;;;;;;8.90;8.00;;;;;;;-2.10;100.00;96572.16;5016027;28;20054;-66
2023/12/03 09:07:12;;;;;;;10.65;9.65;;;;;;;-2.11;100.00;96570.44;5033142;28;20033;-66
2023/12/03 09:09:39;;;;;;;10.02;9.13;;;;;;;-2.00;100.00;96558.97;5018579;28;20057;-66
2023/12/03 09:12:05;;;;;;;9.65;8.85;;;;;;;-2.06;100.00;96571.19;5022673;28;20056;-66
2023/12/03 09:14:30;;;;;;;7.97;7.32;;;;;;;-2.08;100.00;96577.25;5032633;28;20033;-66
2023/12/03 09:16:57;;;;;;;9.85;8.98;;;;;;;-2.14;100.00;96580.84;5028390;28;20573;-65
2023/12/03 09:19:23;;;;;;;6.40;5.57;;;;;;;-2.22;100.00;96575.88;5032786;28;20045;-66
2023/12/03 09:21:48;;;;;;;42.60;36.03;;;;;;;-2.27;100.00;96582.09;5032740;28;20029;-66
2023/12/03 09:24:15;;;;;;;11.10;10.10;;;;;;;-2.36;100.00;96583.19;5020623;28;20026;-65
2023/12/03 09:26:43;;;;;;;21.52;19.27;;;;;;;-2.42;100.00;96586.75;5034248;28;20029;-66
2023/12/03 09:29:10;;;;;;;14.32;13.05;;;;;;;-2.39;100.00;96588.41;5024847;28;20071;-66
2023/12/03 09:31:36;;;;;;;15.50;14.13;;;;;;;-2.26;100.00;96591.50;5029699;28;20029;-65
2023/12/03 09:34:01;;;;;;;8.82;7.97;;;;;;;-2.13;100.00;96597.19;5030752;28;20026;-65
2023/12/03 09:36:26;;;;;;;8.15;7.43;;;;;;;-2.11;100.00;96596.25;5018941;28;20049;-65
2023/12/03 09:38:52;;;;;;;9.18;8.25;;;;;;;-2.12;100.00;96599.72;5030814;28;20026;-66
2023/12/03 09:41:19;;;;;;;12.23;11.07;;;;;;;-2.15;100.00;96599.78;5031964;28;20030;-66
2023/12/03 09:43:46;;;;;;;20.35;18.15;;;;;;;-2.10;100.00;96612.59;5027462;28;20021;-65
2023/12/03 09:46:15;;;;;;;21.15;18.63;;;;;;;-2.05;100.00;96602.97;5029670;28;20089;-66
2023/12/03 09:48:42;;;;;;;13.40;12.10;;;;;;;-2.02;100.00;96608.06;5018639;28;20730;-66
2023/12/03 09:51:12;;;;;;;10.35;9.45;;;;;;;-2.06;100.00;96611.59;5030826;28;20029;-66
2023/12/03 09:53:43;;;;;;;7.72;7.10;;;;;;;-2.13;100.00;96610.91;5029062;28;20096;-66
2023/12/03 09:56:10;;;;;;;9.82;8.93;;;;;;;-2.01;100.00;96617.47;5022931;28;20450;-66
2023/12/03 09:58:36;;;;;;;9.00;8.20;;;;;;;-2.07;100.00;96615.06;5018189;28;20106;-66
2023/12/03 10:01:01;;;;;;;9.63;8.40;;;;;;;-2.15;100.00;96620.44;5034417;28;20049;-66
2023/12/03 10:03:27;;;;;;;14.35;12.38;;;;;;;-2.16;100.00;96624.78;5019714;28;20695;-66
2023/12/03 10:05:53;;;;;;;12.73;11.43;;;;;;;-2.09;100.00;96620.31;5029515;28;20116;-66
2023/12/03 10:08:19;;;;;;;12.63;11.20;;;;;;;-1.76;100.00;96619.41;5018268;28;20022;-66
2023/12/03 10:10:51;;;;;;;7.82;7.03;;;;;;;-1.49;100.00;96612.56;5031057;28;20053;-66
2023/12/03 10:13:17;;;;;;;8.32;7.53;;;;;;;-1.29;100.00;96608.56;5018064;28;20061;-66
2023/12/03 10:15:43;;;;;;;7.90;7.10;;;;;;;-1.09;100.00;96600.22;5020353;28;20099;-66
2023/12/03 10:18:08;;;;;;;7.65;6.38;;;;;;;-0.89;100.00;96602.16;5035286;28;20034;-66
2023/12/03 10:20:34;;;;;;;16.10;14.40;;;;;;;-0.78;100.00;96599.22;5035350;28;20116;-66
2023/12/03 10:23:02;;;;;;;15.85;11.73;;;;;;;-0.80;100.00;96601.00;5028573;28;20030;-67
2023/12/03 10:25:31;;;;;;;12.02;10.63;;;;;;;-0.77;100.00;96595.72;5027622;28;20044;-66
2023/12/03 10:27:58;;;;;;;16.75;12.88;;;;;;;-0.65;100.00;96588.47;5018838;28;20038;-67
2023/12/03 10:30:24;;;;;;;22.33;17.25;;;;;;;-0.45;100.00;96592.97;5031037;28;20498;-67
2023/12/03 10:32:50;;;;;;;31.52;19.92;;;;;;;-0.51;100.00;96596.59;5027886;28;20022;-66
2023/12/03 10:35:15;;;;;;;8.75;7.93;;;;;;;-0.46;100.00;96588.69;5031745;28;20394;-66
2023/12/03 10:37:41;;;;;;;9.55;7.88;;;;;;;-0.45;100.00;96574.84;5025949;28;20013;-67
2023/12/03 10:40:07;;;;;;;9.90;8.88;;;;;;;-0.27;100.00;96573.38;5022706;28;20108;-66
2023/12/03 10:42:36;;;;;;;9.52;8.63;;;;;;;-0.08;100.00;96572.72;5017718;28;20022;-67
2023/12/03 10:45:10;;;;;;;7.80;7.15;;;;;;;-0.01;100.00;96562.09;5018408;28;20034;-67
2023/12/03 10:47:36;;;;;;;6.88;5.95;;;;;;;-0.07;100.00;96549.38;5017590;28;20030;-66
2023/12/03 10:50:05;;;;;;;8.50;7.78;;;;;;;-0.17;100.00;96545.41;5032951;28;20018;-66
2023/12/03 10:52:32;;;;;;;6.97;6.38;;;;;;;-0.04;100.00;96541.50;5026366;28;20078;-67
2023/12/03 10:54:58;;;;;;;5.95;5.45;;;;;;;0.05;100.00;96531.69;5021068;28;20083;-67
2023/12/03 10:57:28;;;;;;;6.50;5.90;;;;;;;0.26;100.00;96536.06;5027498;28;20130;-67
2023/12/03 11:00:01;;;;;;;6.15;5.65;;;;;;;0.33;100.00;96509.94;5032881;28;20028;-67
2023/12/03 11:02:32;;;;;;;6.50;6.00;;;;;;;0.24;100.00;96491.25;5026502;28;20029;-67
2023/12/03 11:05:05;;;;;;;6.22;5.72;;;;;;;0.06;100.00;96484.19;5016473;28;20057;-66
2023/12/03 11:07:32;;;;;;;5.90;5.40;;;;;;;0.21;100.00;96490.53;5017191;28;20060;-67
2023/12/03 11:09:58;;;;;;;5.95;5.45;;;;;;;0.26;100.00;96499.81;5028447;28;20029;-67